Terminal Aerodrome Forecast
Issued by NWS Shreveport, LA

Home | Current Version | Previous Version | Text Only | Print | Product List | Glossary On
Versions: 1 2 3 4 5 6 7 8 9 10 11 12 13 14
000
FTUS44 KSHV 052334
TAFLFK
TAF
KLFK 052334Z 0600/0624 14011KT P6SM SCT045 BKN090
     FM060700 13008KT P6SM BKN015
      TEMPO 0612/0615 BKN007
     FM061600 14010KT P6SM BKN025
     FM061700 15010KT P6SM BKN040=

USA.gov is the U.S. government's official web portal to all federal, state and local government web resources and services.